Time,TemperatureF,DewpointF,PressureIn,WindDirection,WindDirectionDegrees,WindSpeedMPH,WindSpeedGustMPH,Humidity,HourlyPrecipIn,Conditions,Clouds,dailyrainin,SoftwareType,DateUTC
2013-11-10 00:00:00,32.2,26.0,30.26,SSE,159,2.0,-999.0,79,-99.99,,,0.00,weatherlink.com 1.10,2013-11-10 07:00:00,
2013-11-10 00:15:00,31.8,26.0,30.25,SSE,159,3.0,-999.0,79,-99.99,,,0.00,weatherlink.com 1.10,2013-11-10 07:15:00,
2013-11-10 00:30:00,31.5,26.0,30.25,SSE,159,1.0,-999.0,80,-99.99,,,0.00,weatherlink.com 1.10,2013-11-10 07:30:00,
2013-11-10 00:45:00,31.9,26.0,30.25,SSE,159,1.0,-999.0,80,-99.99,,,0.00,weatherlink.com 1.10,2013-11-10 07:45:00,
2013-11-10 01:00:00,31.8,26.0,30.25,SSE,159,0.0,-999.0,79,-99.99,,,0.00,weatherlink.com 1.10,2013-11-10 08:00:00,
2013-11-10 01:15:00,31.4,26.0,30.24,SSE,159,3.0,-999.0,81,-99.99,,,0.00,weatherlink.com 1.10,2013-11-10 08:15:00,
2013-11-10 01:30:00,31.8,26.0,30.24,SSE,160,2.0,-999.0,79,-99.99,,,0.00,weatherlink.com 1.10,2013-11-10 08:30:00,
2013-11-10 01:45:00,31.4,25.0,30.24,SSE,162,2.0,-999.0,78,-99.99,,,0.00,weatherlink.com 1.10,2013-11-10 08:45:00,
2013-11-10 02:00:00,32.2,27.0,30.25,SSE,162,0.0,-999.0,80,-99.99,,,0.00,weatherlink.com 1.10,2013-11-10 09:00:00,
2013-11-10 02:15:00,33.0,27.0,30.24,SSE,162,2.0,-999.0,78,-99.99,,,0.00,weatherlink.com 1.10,2013-11-10 09:15:00,
2013-11-10 02:30:00,31.9,26.0,30.25,SSE,163,1.0,-999.0,79,-99.99,,,0.00,weatherlink.com 1.10,2013-11-10 09:30:00,
2013-11-10 02:45:00,32.5,27.0,30.25,SSE,163,1.0,-999.0,80,-99.99,,,0.00,weatherlink.com 1.10,2013-11-10 09:45:00,
2013-11-10 03:00:00,32.7,27.0,30.25,SSE,163,0.0,-999.0,79,-99.99,,,0.00,weatherlink.com 1.10,2013-11-10 10:00:00,
2013-11-10 03:15:00,32.8,27.0,30.25,SSE,157,0.0,-999.0,78,-99.99,,,0.00,weatherlink.com 1.10,2013-11-10 10:15:00,
2013-11-10 03:30:00,32.6,27.0,30.25,SSE,158,4.0,-999.0,79,-99.99,,,0.00,weatherlink.com 1.10,2013-11-10 10:30:00,
2013-11-10 03:45:00,31.6,25.0,30.25,SSE,158,1.0,-999.0,78,-99.99,,,0.00,weatherlink.com 1.10,2013-11-10 10:45:00,
2013-11-10 04:00:00,31.4,26.0,30.25,SSE,158,1.0,-999.0,80,-99.99,,,0.00,weatherlink.com 1.10,2013-11-10 11:00:00,
2013-11-10 04:15:00,31.4,26.0,30.25,SSE,157,1.0,-999.0,80,-99.99,,,0.00,weatherlink.com 1.10,2013-11-10 11:15:00,
2013-11-10 04:30:00,30.8,25.0,30.26,SSE,157,1.0,-999.0,79,-99.99,,,0.00,weatherlink.com 1.10,2013-11-10 11:30:00,
2013-11-10 04:45:00,30.1,24.0,30.26,SSE,157,0.0,-999.0,79,-99.99,,,0.00,weatherlink.com 1.10,2013-11-10 11:45:00,
2013-11-10 05:00:00,30.3,25.0,30.26,SSE,157,0.0,-999.0,80,-99.99,,,0.00,weatherlink.com 1.10,2013-11-10 12:00:00,
2013-11-10 05:15:00,30.6,25.0,30.27,SSE,157,2.0,-999.0,80,-99.99,,,0.00,weatherlink.com 1.10,2013-11-10 12:15:00,
2013-11-10 05:30:00,31.2,25.0,30.27,SSE,159,2.0,-999.0,79,-99.99,,,0.00,weatherlink.com 1.10,2013-11-10 12:30:00,
2013-11-10 05:45:00,31.9,26.0,30.27,SSE,159,1.0,-999.0,78,-99.99,,,0.00,weatherlink.com 1.10,2013-11-10 12:45:00,
2013-11-10 06:00:00,31.9,25.0,30.27,SSE,159,1.0,-999.0,77,-99.99,,,0.00,weatherlink.com 1.10,2013-11-10 13:00:00,
2013-11-10 06:15:00,31.7,26.0,30.27,SSE,159,0.0,-999.0,78,-99.99,,,0.00,weatherlink.com 1.10,2013-11-10 13:15:00,
2013-11-10 06:30:00,31.4,25.0,30.27,SSE,159,1.0,-999.0,78,-99.99,,,0.00,weatherlink.com 1.10,2013-11-10 13:30:00,
2013-11-10 06:45:00,31.4,26.0,30.27,SSE,157,1.0,-999.0,79,-99.99,,,0.00,weatherlink.com 1.10,2013-11-10 13:45:00,
2013-11-10 07:00:00,32.6,26.0,30.27,SSE,154,3.0,-999.0,77,-99.99,,,0.00,weatherlink.com 1.10,2013-11-10 14:00:00,
2013-11-10 07:15:00,32.4,26.0,30.28,SSE,151,5.0,-999.0,76,-99.99,,,0.00,weatherlink.com 1.10,2013-11-10 14:15:00,
2013-11-10 07:30:00,31.3,25.0,30.28,SSE,151,1.0,-999.0,77,-99.99,,,0.00,weatherlink.com 1.10,2013-11-10 14:30:00,
2013-11-10 07:45:00,31.1,25.0,30.29,SSE,151,1.0,-999.0,78,-99.99,,,0.00,weatherlink.com 1.10,2013-11-10 14:45:00,
2013-11-10 08:00:00,32.8,27.0,30.29,SSE,151,1.0,-999.0,79,-99.99,,,0.00,weatherlink.com 1.10,2013-11-10 15:00:00,
2013-11-10 08:30:00,37.7,30.0,30.30,SSE,151,0.0,-999.0,73,-99.99,,,0.00,weatherlink.com 1.10,2013-11-10 15:30:00,
2013-11-10 08:45:00,38.3,30.0,30.30,SSE,151,0.0,-999.0,73,-99.99,,,0.00,weatherlink.com 1.10,2013-11-10 15:45:00,
2013-11-10 09:00:00,38.6,31.0,30.29,SSE,151,0.0,-999.0,74,-99.99,,,0.00,weatherlink.com 1.10,2013-11-10 16:00:00,
2013-11-10 09:15:00,38.7,31.0,30.29,SSE,151,0.0,-999.0,73,-99.99,,,0.00,weatherlink.com 1.10,2013-11-10 16:15:00,
2013-11-10 09:30:00,41.8,32.0,30.29,SSE,151,2.0,-999.0,68,-99.99,,,0.00,weatherlink.com 1.10,2013-11-10 16:30:00,
2013-11-10 09:45:00,44.6,33.0,30.29,SSE,160,4.0,-999.0,63,-99.99,,,0.00,weatherlink.com 1.10,2013-11-10 16:45:00,
2013-11-10 10:00:00,46.7,33.0,30.29,SSE,161,4.0,-999.0,60,-99.99,,,0.00,weatherlink.com 1.10,2013-11-10 17:00:00,
2013-11-10 10:15:00,48.6,33.0,30.29,South,170,0.0,-999.0,56,-99.99,,,0.00,weatherlink.com 1.10,2013-11-10 17:15:00,
2013-11-10 10:30:00,50.6,34.0,30.29,South,170,1.0,-999.0,54,-99.99,,,0.00,weatherlink.com 1.10,2013-11-10 17:30:00,
2013-11-10 10:45:00,51.9,33.0,30.28,SW,221,6.0,-999.0,49,-99.99,,,0.00,weatherlink.com 1.10,2013-11-10 17:45:00,
2013-11-10 11:00:00,52.0,33.0,30.28,SW,215,4.0,-999.0,48,-99.99,,,0.00,weatherlink.com 1.10,2013-11-10 18:00:00,
2013-11-10 11:15:00,52.7,33.0,30.27,SSW,202,4.0,-999.0,47,-99.99,,,0.00,weatherlink.com 1.10,2013-11-10 18:15:00,
2013-11-10 11:30:00,53.3,34.0,30.27,SW,236,10.0,-999.0,48,-99.99,,,0.00,weatherlink.com 1.10,2013-11-10 18:30:00,
2013-11-10 11:45:00,53.8,33.0,30.26,SSW,198,7.0,-999.0,45,-99.99,,,0.00,weatherlink.com 1.10,2013-11-10 18:45:00,
2013-11-10 12:00:00,54.1,34.0,30.26,SW,227,8.0,-999.0,46,-99.99,,,0.00,weatherlink.com 1.10,2013-11-10 19:00:00,
2013-11-10 12:15:00,54.2,33.0,30.25,SW,223,5.0,-999.0,44,-99.99,,,0.00,weatherlink.com 1.10,2013-11-10 19:15:00,
2013-11-10 12:30:00,54.5,32.0,30.24,SW,225,9.0,-999.0,43,-99.99,,,0.00,weatherlink.com 1.10,2013-11-10 19:30:00,
2013-11-10 12:45:00,54.9,32.0,30.24,SSW,208,3.0,-999.0,42,-99.99,,,0.00,weatherlink.com 1.10,2013-11-10 19:45:00,
2013-11-10 13:00:00,55.4,33.0,30.23,SW,214,6.0,-999.0,43,-99.99,,,0.00,weatherlink.com 1.10,2013-11-10 20:00:00,
2013-11-10 13:15:00,55.1,32.0,30.23,SW,227,10.0,-999.0,41,-99.99,,,0.00,weatherlink.com 1.10,2013-11-10 20:15:00,
2013-11-10 13:30:00,55.2,32.0,30.23,SW,224,9.0,-999.0,42,-99.99,,,0.00,weatherlink.com 1.10,2013-11-10 20:30:00,
2013-11-10 13:45:00,55.0,32.0,30.23,West,259,9.0,-999.0,42,-99.99,,,0.00,weatherlink.com 1.10,2013-11-10 20:45:00,
2013-11-10 14:00:00,55.1,32.0,30.22,SW,219,8.0,-999.0,41,-99.99,,,0.00,weatherlink.com 1.10,2013-11-10 21:00:00,
2013-11-10 14:15:00,55.1,30.0,30.22,SSW,205,5.0,-999.0,39,-99.99,,,0.00,weatherlink.com 1.10,2013-11-10 21:15:00,
2013-11-10 14:30:00,55.2,31.0,30.22,SW,232,12.0,-999.0,40,-99.99,,,0.00,weatherlink.com 1.10,2013-11-10 21:30:00,
2013-11-10 14:45:00,55.6,31.0,30.21,WSW,237,6.0,-999.0,39,-99.99,,,0.00,weatherlink.com 1.10,2013-11-10 21:45:00,
2013-11-10 15:00:00,55.6,31.0,30.21,SSW,213,6.0,-999.0,39,-99.99,,,0.00,weatherlink.com 1.10,2013-11-10 22:00:00,
2013-11-10 15:15:00,55.3,31.0,30.21,WSW,240,7.0,-999.0,40,-99.99,,,0.00,weatherlink.com 1.10,2013-11-10 22:15:00,
2013-11-10 15:30:00,55.4,31.0,30.21,SW,228,2.0,-999.0,40,-99.99,,,0.00,weatherlink.com 1.10,2013-11-10 22:30:00,
2013-11-10 15:45:00,54.7,31.0,30.21,SSW,196,6.0,-999.0,40,-99.99,,,0.00,weatherlink.com 1.10,2013-11-10 22:45:00,
2013-11-10 16:00:00,54.5,31.0,30.21,SSW,207,4.0,-999.0,41,-99.99,,,0.00,weatherlink.com 1.10,2013-11-10 23:00:00,
2013-11-10 16:15:00,53.9,31.0,30.21,SSW,195,4.0,-999.0,42,-99.99,,,0.00,weatherlink.com 1.10,2013-11-10 23:15:00,
2013-11-10 16:30:00,53.2,31.0,30.21,SSW,194,1.0,-999.0,43,-99.99,,,0.00,weatherlink.com 1.10,2013-11-10 23:30:00,
2013-11-10 16:45:00,51.3,30.0,30.21,SSW,194,1.0,-999.0,45,-99.99,,,0.00,weatherlink.com 1.10,2013-11-10 23:45:00,
2013-11-10 17:00:00,49.2,30.0,30.21,SSW,194,1.0,-999.0,47,-99.99,,,0.00,weatherlink.com 1.10,2013-11-11 00:00:00,
2013-11-10 17:15:00,47.8,29.0,30.21,SSW,194,0.0,-999.0,48,-99.99,,,0.00,weatherlink.com 1.10,2013-11-11 00:15:00,
2013-11-10 17:30:00,45.7,28.0,30.20,SSW,194,0.0,-999.0,51,-99.99,,,0.00,weatherlink.com 1.10,2013-11-11 00:30:00,
2013-11-10 17:45:00,42.8,27.0,30.21,SSW,194,1.0,-999.0,55,-99.99,,,0.00,weatherlink.com 1.10,2013-11-11 00:45:00,
2013-11-10 18:00:00,38.9,27.0,30.21,SSW,194,0.0,-999.0,63,-99.99,,,0.00,weatherlink.com 1.10,2013-11-11 01:00:00,
2013-11-10 18:15:00,37.5,27.0,30.22,SSW,194,0.0,-999.0,67,-99.99,,,0.00,weatherlink.com 1.10,2013-11-11 01:15:00,
2013-11-10 18:30:00,37.3,28.0,30.22,SSW,194,0.0,-999.0,68,-99.99,,,0.00,weatherlink.com 1.10,2013-11-11 01:30:00,
2013-11-10 18:45:00,35.6,26.0,30.23,SSW,194,1.0,-999.0,69,-99.99,,,0.00,weatherlink.com 1.10,2013-11-11 01:45:00,
2013-11-10 19:00:00,34.4,26.0,30.23,SSW,194,1.0,-999.0,72,-99.99,,,0.00,weatherlink.com 1.10,2013-11-11 02:00:00,
2013-11-10 19:15:00,34.4,26.0,30.23,SSW,194,1.0,-999.0,72,-99.99,,,0.00,weatherlink.com 1.10,2013-11-11 02:15:00,
2013-11-10 19:30:00,33.6,26.0,30.24,SSW,194,0.0,-999.0,75,-99.99,,,0.00,weatherlink.com 1.10,2013-11-11 02:30:00,
2013-11-10 19:45:00,33.5,26.0,30.24,SSW,194,0.0,-999.0,73,-99.99,,,0.00,weatherlink.com 1.10,2013-11-11 02:45:00,
2013-11-10 20:15:00,32.5,25.0,30.24,SSW,194,2.0,-999.0,75,-99.99,,,0.00,weatherlink.com 1.10,2013-11-11 03:15:00,
2013-11-10 20:30:00,32.3,25.0,30.24,SSW,194,1.0,-999.0,75,-99.99,,,0.00,weatherlink.com 1.10,2013-11-11 03:30:00,
2013-11-10 20:45:00,32.3,25.0,30.24,SSW,194,3.0,-999.0,74,-99.99,,,0.00,weatherlink.com 1.10,2013-11-11 03:45:00,
2013-11-10 21:00:00,33.2,25.0,30.24,SSW,194,0.0,-999.0,73,-99.99,,,0.00,weatherlink.com 1.10,2013-11-11 04:00:00,
2013-11-10 21:15:00,34.2,26.0,30.24,SSW,194,1.0,-999.0,72,-99.99,,,0.00,weatherlink.com 1.10,2013-11-11 04:15:00,
2013-11-10 21:30:00,34.4,26.0,30.24,SSW,193,3.0,-999.0,71,-99.99,,,0.00,weatherlink.com 1.10,2013-11-11 04:30:00,
2013-11-10 21:45:00,34.4,26.0,30.24,SSW,192,1.0,-999.0,72,-99.99,,,0.00,weatherlink.com 1.10,2013-11-11 04:45:00,
2013-11-10 22:00:00,34.1,25.0,30.24,SSW,192,2.0,-999.0,70,-99.99,,,0.00,weatherlink.com 1.10,2013-11-11 05:00:00,
2013-11-10 22:15:00,32.4,25.0,30.25,SSW,192,0.0,-999.0,73,-99.99,,,0.00,weatherlink.com 1.10,2013-11-11 05:15:00,
2013-11-10 22:30:00,31.8,25.0,30.25,SSW,192,2.0,-999.0,75,-99.99,,,0.00,weatherlink.com 1.10,2013-11-11 05:30:00,
2013-11-10 22:45:00,32.9,25.0,30.25,SSW,192,2.0,-999.0,73,-99.99,,,0.00,weatherlink.com 1.10,2013-11-11 05:45:00,
2013-11-10 23:00:00,33.0,24.0,30.25,SSW,192,0.0,-999.0,70,-99.99,,,0.00,weatherlink.com 1.10,2013-11-11 06:00:00,
2013-11-10 23:15:00,32.5,24.0,30.24,SSW,192,0.0,-999.0,72,-99.99,,,0.00,weatherlink.com 1.10,2013-11-11 06:15:00,
2013-11-10 23:30:00,32.1,24.0,30.23,SSW,192,2.0,-999.0,72,-99.99,,,0.00,weatherlink.com 1.10,2013-11-11 06:30:00,
2013-11-10 23:45:00,32.0,24.0,30.24,SSW,192,0.0,-999.0,72,-99.99,,,0.00,weatherlink.com 1.10,2013-11-11 06:45:00,